createdAt,value
2018-10-09T00:00:35.590Z,10.73
2018-10-09T00:03:05.429Z,9.40
2018-10-09T00:05:34.881Z,11.00
2018-10-09T00:08:03.488Z,11.70
2018-10-09T00:10:32.785Z,11.27
2018-10-09T00:15:35.555Z,11.70
2018-10-09T00:18:04.513Z,14.20
2018-10-09T00:20:33.041Z,11.80
2018-10-09T00:23:01.627Z,11.93
2018-10-09T00:25:30.192Z,12.23
2018-10-09T00:27:58.760Z,8.83
2018-10-09T00:30:27.306Z,13.00
2018-10-09T00:32:56.118Z,10.37
2018-10-09T00:35:24.796Z,11.80
2018-10-09T00:38:00.450Z,10.93
2018-10-09T00:40:30.729Z,10.18
2018-10-09T00:42:59.505Z,10.77
2018-10-09T00:45:28.060Z,14.63
2018-10-09T00:47:56.648Z,11.73
2018-10-09T00:50:25.200Z,13.30
2018-10-09T00:52:53.763Z,13.20
2018-10-09T00:55:22.310Z,13.40
2018-10-09T00:57:50.972Z,15.17
2018-10-09T01:00:19.506Z,16.67
2018-10-09T01:02:48.073Z,16.93
2018-10-09T01:05:16.651Z,12.93
2018-10-09T01:07:45.186Z,13.37
2018-10-09T01:10:13.840Z,12.27
2018-10-09T01:12:42.403Z,14.17
2018-10-09T01:15:11.018Z,19.33
2018-10-09T01:17:39.540Z,11.67
2018-10-09T01:20:08.086Z,14.17
2018-10-09T01:22:36.800Z,13.20
2018-10-09T01:25:05.358Z,11.53
2018-10-09T01:27:33.927Z,12.00
2018-10-09T01:30:02.456Z,13.00
2018-10-09T01:32:30.974Z,16.97
2018-10-09T01:34:59.496Z,17.83
2018-10-09T01:37:28.033Z,19.23
2018-10-09T01:39:56.608Z,15.73
2018-10-09T01:42:25.120Z,13.13
2018-10-09T01:44:53.693Z,20.95
2018-10-09T01:47:22.208Z,20.27
2018-10-09T01:49:50.753Z,17.87
2018-10-09T01:52:19.292Z,18.37
2018-10-09T01:54:47.843Z,15.40
2018-10-09T01:57:16.380Z,18.47
2018-10-09T01:59:44.905Z,17.53
2018-10-09T02:02:13.434Z,17.80
2018-10-09T02:04:41.978Z,15.90
2018-10-09T02:07:10.729Z,15.00
2018-10-09T02:09:39.262Z,15.90
2018-10-09T02:12:07.857Z,19.67
2018-10-09T02:14:36.396Z,16.43
2018-10-09T02:17:04.998Z,14.10
2018-10-09T02:19:33.519Z,14.20
2018-10-09T02:22:02.082Z,15.27
2018-10-09T02:24:30.632Z,15.70
2018-10-09T02:26:59.165Z,18.37
2018-10-09T02:29:27.792Z,12.77
2018-10-09T02:31:56.325Z,16.47
2018-10-09T02:34:24.908Z,17.27
2018-10-09T02:36:53.449Z,16.57
2018-10-09T02:39:22.878Z,13.97
2018-10-09T02:41:51.433Z,13.23
2018-10-09T02:44:19.980Z,16.90
2018-10-09T02:46:48.508Z,18.17
2018-10-09T02:49:17.059Z,13.97
2018-10-09T02:51:45.582Z,14.77
2018-10-09T02:54:14.159Z,15.20
2018-10-09T02:56:42.680Z,13.97
2018-10-09T02:59:11.744Z,15.53
2018-10-09T03:01:40.284Z,13.47
2018-10-09T03:04:08.799Z,17.73
2018-10-09T03:06:37.386Z,15.90
2018-10-09T03:09:07.065Z,17.90
2018-10-09T03:11:35.783Z,21.73
2018-10-09T03:14:04.432Z,15.53
2018-10-09T03:16:32.976Z,17.63
2018-10-09T03:19:01.659Z,14.73
2018-10-09T03:21:30.172Z,15.53
2018-10-09T03:23:58.702Z,21.77
2018-10-09T03:26:27.241Z,17.50
2018-10-09T03:28:55.816Z,17.10
2018-10-09T03:31:24.368Z,21.20
2018-10-09T03:33:52.919Z,22.40
2018-10-09T03:36:21.440Z,16.00
2018-10-09T03:38:50.356Z,19.83
2018-10-09T03:41:18.893Z,17.60
2018-10-09T03:43:47.449Z,21.73
2018-10-09T03:46:16.478Z,20.20
2018-10-09T03:48:45.674Z,15.90
2018-10-09T03:51:14.235Z,19.67
2018-10-09T03:53:42.754Z,21.07
2018-10-09T03:56:11.300Z,19.13
2018-10-09T03:58:39.848Z,20.70
2018-10-09T04:01:08.370Z,21.57
2018-10-09T04:03:36.890Z,19.20
2018-10-09T04:06:05.441Z,23.90
2018-10-09T04:08:33.994Z,23.00
2018-10-09T04:11:02.567Z,23.00
2018-10-09T04:13:31.155Z,23.23
2018-10-09T04:15:59.681Z,20.53
2018-10-09T04:18:28.200Z,21.10
2018-10-09T04:20:56.748Z,21.23
2018-10-09T04:23:25.326Z,8.30
2018-10-09T04:25:53.852Z,23.70
2018-10-09T04:28:22.382Z,20.77
2018-10-09T04:30:50.912Z,19.37
2018-10-09T04:33:19.487Z,20.67
2018-10-09T04:35:47.995Z,21.83
2018-10-09T04:38:17.325Z,20.83
2018-10-09T04:40:45.859Z,26.03
2018-10-09T04:43:14.400Z,25.13
2018-10-09T04:45:43.066Z,24.87
2018-10-09T04:48:11.961Z,25.37
2018-10-09T04:50:40.492Z,27.40
2018-10-09T04:53:09.084Z,29.00
2018-10-09T04:55:37.573Z,24.17
2018-10-09T04:58:06.155Z,28.37
2018-10-09T05:00:34.911Z,28.13
2018-10-09T05:03:03.457Z,26.53
2018-10-09T05:05:31.991Z,24.90
2018-10-09T05:08:00.516Z,26.03
2018-10-09T05:10:29.057Z,28.23
2018-10-09T05:12:57.577Z,24.90
2018-10-09T05:15:26.084Z,23.83
2018-10-09T05:17:54.691Z,25.67
2018-10-09T05:20:23.160Z,24.33
2018-10-09T05:22:51.916Z,25.80
2018-10-09T05:25:20.508Z,26.93
2018-10-09T05:27:49.019Z,29.80
2018-10-09T05:30:17.534Z,36.63
2018-10-09T05:32:46.051Z,26.57
2018-10-09T05:35:14.597Z,21.70
2018-10-09T05:37:43.182Z,30.17
2018-10-09T05:40:11.986Z,30.35
2018-10-09T05:42:40.523Z,23.60
2018-10-09T05:45:09.397Z,28.70
2018-10-09T05:47:38.053Z,25.40
2018-10-09T05:50:07.937Z,28.60
2018-10-09T05:52:36.813Z,27.97
2018-10-09T05:55:05.468Z,31.93
2018-10-09T05:57:33.988Z,24.93
2018-10-09T06:00:02.574Z,27.70
2018-10-09T06:02:31.121Z,29.67
2018-10-09T06:04:59.662Z,31.27
2018-10-09T06:07:28.192Z,26.80
2018-10-09T06:09:56.760Z,27.27
2018-10-09T06:12:25.341Z,24.60
2018-10-09T06:14:53.940Z,27.13
2018-10-09T06:17:22.478Z,27.77
2018-10-09T06:19:51.024Z,29.87
2018-10-09T06:22:19.621Z,24.13
2018-10-09T06:24:48.168Z,30.73
2018-10-09T06:27:16.734Z,26.03
2018-10-09T06:29:45.261Z,26.80
2018-10-09T06:32:13.831Z,24.37
2018-10-09T06:34:42.377Z,24.33
2018-10-09T06:37:11.004Z,24.03
2018-10-09T06:39:39.501Z,23.70
2018-10-09T06:42:08.074Z,28.17
2018-10-09T06:44:36.735Z,25.73
2018-10-09T06:47:05.277Z,20.97
2018-10-09T06:49:34.006Z,24.93
2018-10-09T06:52:02.607Z,26.93
2018-10-09T06:54:31.315Z,23.10
2018-10-09T06:57:00.202Z,26.63
2018-10-09T06:59:28.806Z,22.23
2018-10-09T07:01:57.385Z,21.50
2018-10-09T07:04:26.225Z,24.53
2018-10-09T07:06:54.934Z,24.30
2018-10-09T07:09:23.533Z,22.47
2018-10-09T07:11:52.106Z,26.35
2018-10-09T07:14:20.661Z,25.23
2018-10-09T07:16:49.212Z,21.00
2018-10-09T07:19:18.350Z,32.27
2018-10-09T07:21:46.886Z,24.87
2018-10-09T07:24:15.941Z,22.50
2018-10-09T07:26:44.664Z,23.73
2018-10-09T07:29:13.192Z,23.73
2018-10-09T07:31:41.719Z,22.83
2018-10-09T07:34:10.365Z,23.80
2018-10-09T07:36:38.901Z,23.77
2018-10-09T07:39:10.805Z,24.13
2018-10-09T07:41:39.347Z,24.20
2018-10-09T07:44:08.120Z,23.80
2018-10-09T07:46:36.673Z,21.50
2018-10-09T07:49:05.223Z,21.97
2018-10-09T07:51:33.785Z,28.00
2018-10-09T07:54:03.269Z,24.13
2018-10-09T07:56:31.802Z,29.47
2018-10-09T07:59:00.350Z,25.07
2018-10-09T08:01:29.591Z,26.17
2018-10-09T08:03:58.173Z,22.70
2018-10-09T08:06:26.813Z,24.53
2018-10-09T08:08:55.356Z,20.33
2018-10-09T08:11:23.968Z,25.67
2018-10-09T08:13:52.528Z,22.93
2018-10-09T08:16:21.101Z,25.70
2018-10-09T08:18:50.176Z,24.43
2018-10-09T08:21:19.035Z,21.03
2018-10-09T08:23:48.482Z,22.63
2018-10-09T08:26:17.169Z,20.07
2018-10-09T08:28:49.413Z,17.07
2018-10-09T08:31:21.590Z,17.60
2018-10-09T08:33:50.583Z,18.90
2018-10-09T08:36:19.170Z,19.63
2018-10-09T08:38:48.673Z,23.77
2018-10-09T08:41:20.326Z,14.27
2018-10-09T08:43:48.842Z,16.50
2018-10-09T08:46:17.516Z,15.53
2018-10-09T08:48:46.912Z,14.20
2018-10-09T08:51:16.453Z,21.20
2018-10-09T08:53:45.439Z,14.00
2018-10-09T08:56:14.019Z,16.47
2018-10-09T08:58:43.383Z,16.43
2018-10-09T09:01:11.940Z,17.00
2018-10-09T09:03:40.537Z,13.43
2018-10-09T09:06:09.021Z,14.47
2018-10-09T09:08:37.538Z,13.27
2018-10-09T09:11:06.817Z,16.80
2018-10-09T09:13:35.748Z,16.30
2018-10-09T09:16:05.344Z,13.73
2018-10-09T09:18:34.109Z,12.70
2018-10-09T09:21:03.431Z,11.33
2018-10-09T09:23:32.865Z,12.10
2018-10-09T09:26:06.416Z,9.77
2018-10-09T09:28:35.333Z,10.07
2018-10-09T09:31:04.197Z,8.90
2018-10-09T09:33:33.001Z,9.47
2018-10-09T09:36:03.077Z,11.63
2018-10-09T09:38:31.653Z,8.47
2018-10-09T09:41:00.480Z,10.77
2018-10-09T09:43:29.748Z,10.37
2018-10-09T09:46:01.646Z,9.00
2018-10-09T09:48:30.223Z,12.27
2018-10-09T09:50:58.872Z,8.57
2018-10-09T09:53:27.703Z,10.17
2018-10-09T09:56:01.310Z,9.47
2018-10-09T09:58:30.199Z,6.33
2018-10-09T10:01:02.921Z,9.53
2018-10-09T10:03:32.280Z,7.70
2018-10-09T10:06:01.943Z,10.73
2018-10-09T10:08:30.551Z,13.90
2018-10-09T10:10:59.105Z,9.17
2018-10-09T10:13:27.666Z,14.60
2018-10-09T10:15:56.341Z,7.17
2018-10-09T10:18:24.836Z,10.87
2018-10-09T10:20:53.394Z,7.47
2018-10-09T10:23:22.498Z,11.23
2018-10-09T10:25:51.057Z,12.97
2018-10-09T10:28:20.294Z,11.87
2018-10-09T10:30:51.342Z,9.67
2018-10-09T10:33:19.874Z,9.27
2018-10-09T10:35:48.658Z,10.70
2018-10-09T10:38:17.144Z,9.40
2018-10-09T10:40:45.734Z,10.10
2018-10-09T10:43:14.338Z,7.37
2018-10-09T10:45:43.308Z,9.07
2018-10-09T10:48:11.901Z,11.50
2018-10-09T10:50:40.473Z,15.00
2018-10-09T10:53:09.031Z,10.70
2018-10-09T10:55:37.651Z,9.97
2018-10-09T10:58:06.551Z,10.37
2018-10-09T11:00:35.157Z,8.90
2018-10-09T11:03:03.700Z,10.80
2018-10-09T11:05:32.274Z,12.27
2018-10-09T11:08:00.925Z,6.40
2018-10-09T11:10:29.419Z,7.03
2018-10-09T11:12:58.010Z,9.40
2018-10-09T11:15:26.691Z,8.43
2018-10-09T11:17:55.244Z,11.43
2018-10-09T11:20:23.786Z,7.53
2018-10-09T11:22:52.421Z,7.20
2018-10-09T11:25:21.037Z,3.97
2018-10-09T11:27:49.589Z,4.97
2018-10-09T11:30:18.158Z,5.20
2018-10-09T11:32:46.763Z,6.23
2018-10-09T11:35:15.320Z,4.33
2018-10-09T11:37:44.076Z,4.87
2018-10-09T11:40:12.653Z,5.27
2018-10-09T11:42:41.269Z,6.73
2018-10-09T11:45:10.174Z,4.23
2018-10-09T11:47:38.721Z,6.27
2018-10-09T11:50:08.366Z,5.17
2018-10-09T11:52:36.964Z,5.47
2018-10-09T11:55:05.610Z,6.13
2018-10-09T11:57:34.206Z,6.63
2018-10-09T12:00:02.879Z,5.93
2018-10-09T12:02:31.522Z,6.83
2018-10-09T12:05:00.247Z,7.53
2018-10-09T12:07:29.147Z,7.57
2018-10-09T12:09:58.731Z,5.73
2018-10-09T12:12:28.251Z,9.40
2018-10-09T12:14:56.837Z,9.10
2018-10-09T12:17:25.657Z,7.33
2018-10-09T12:19:54.406Z,8.17
2018-10-09T12:22:23.398Z,5.17
2018-10-09T12:24:51.944Z,7.97
2018-10-09T12:27:20.529Z,8.07
2018-10-09T12:29:49.100Z,5.97
2018-10-09T12:32:17.685Z,9.37
2018-10-09T12:34:46.225Z,9.00
2018-10-09T12:37:14.772Z,9.73
2018-10-09T12:39:43.373Z,7.20
2018-10-09T12:42:11.903Z,7.20
2018-10-09T12:44:40.614Z,7.03
2018-10-09T12:47:09.157Z,7.43
2018-10-09T12:49:37.754Z,8.97
2018-10-09T12:52:06.374Z,7.03
2018-10-09T12:54:34.909Z,9.10
2018-10-09T12:57:03.501Z,10.53
2018-10-09T12:59:32.074Z,8.70
2018-10-09T13:02:00.638Z,7.43
2018-10-09T13:04:29.283Z,11.27
2018-10-09T13:06:57.805Z,5.80
2018-10-09T13:09:26.698Z,7.13
2018-10-09T13:11:55.200Z,6.33
2018-10-09T13:14:23.735Z,9.33
2018-10-09T13:16:52.327Z,8.37
2018-10-09T13:19:20.970Z,8.73
2018-10-09T13:21:49.883Z,5.77
2018-10-09T13:24:18.133Z,6.83
2018-10-09T13:26:46.698Z,6.97
2018-10-09T13:29:15.303Z,8.30
2018-10-09T13:31:43.854Z,11.67
2018-10-09T13:34:12.529Z,8.77
2018-10-09T13:36:41.573Z,10.13
2018-10-09T13:39:10.120Z,9.43
2018-10-09T13:41:38.686Z,11.93
2018-10-09T13:44:07.765Z,12.27
2018-10-09T13:46:38.161Z,8.63
2018-10-09T13:49:07.252Z,11.75
2018-10-09T13:51:35.893Z,8.97
2018-10-09T13:54:04.490Z,9.73
2018-10-09T13:56:33.109Z,7.20
2018-10-09T13:59:02.692Z,11.70
2018-10-09T14:01:31.245Z,21.70
2018-10-09T14:04:00.599Z,8.90
2018-10-09T14:06:29.194Z,7.90
2018-10-09T14:08:57.731Z,14.30
2018-10-09T14:11:26.394Z,9.67
2018-10-09T14:13:54.958Z,10.43
2018-10-09T14:16:23.754Z,13.53
2018-10-09T14:18:52.162Z,15.77
2018-10-09T14:21:20.763Z,12.63
2018-10-09T14:23:49.355Z,10.63
2018-10-09T14:26:17.986Z,9.90
2018-10-09T14:28:46.522Z,11.37
2018-10-09T14:31:15.133Z,14.10
2018-10-09T14:33:43.701Z,10.27
2018-10-09T14:36:12.405Z,11.20
2018-10-09T14:38:41.025Z,9.13
2018-10-09T14:41:09.542Z,12.40
2018-10-09T14:43:38.138Z,9.70
2018-10-09T14:46:06.729Z,12.00
2018-10-09T14:48:35.377Z,14.53
2018-10-09T14:51:03.941Z,16.13
2018-10-09T14:53:32.605Z,14.03
2018-10-09T14:56:01.262Z,9.10
2018-10-09T14:58:29.832Z,12.93
2018-10-09T15:00:58.395Z,8.60
2018-10-09T15:03:27.050Z,12.50
2018-10-09T15:05:55.557Z,8.33
2018-10-09T15:08:24.228Z,15.17
2018-10-09T15:10:52.988Z,10.63
2018-10-09T15:13:21.554Z,10.67
2018-10-09T15:15:50.256Z,11.30
2018-10-09T15:18:18.834Z,10.73
2018-10-09T15:20:47.465Z,8.63
2018-10-09T15:23:16.008Z,11.97
2018-10-09T15:25:44.529Z,11.57
2018-10-09T15:28:13.116Z,9.30
2018-10-09T15:30:41.833Z,13.53
2018-10-09T15:33:10.417Z,10.90
2018-10-09T15:35:39.037Z,10.40
2018-10-09T15:38:07.578Z,9.50
2018-10-09T15:40:36.107Z,9.70
2018-10-09T15:43:04.743Z,4.67
2018-10-09T15:45:33.290Z,15.10
2018-10-09T15:48:01.813Z,11.50
2018-10-09T15:50:30.386Z,11.43
2018-10-09T15:52:58.938Z,10.57
2018-10-09T15:55:27.591Z,15.30
2018-10-09T15:57:56.310Z,11.07
2018-10-09T16:00:24.840Z,15.23
2018-10-09T16:02:53.422Z,8.97
2018-10-09T16:05:22.008Z,9.90
2018-10-09T16:07:50.530Z,11.20
2018-10-09T16:10:19.085Z,9.83
2018-10-09T16:12:47.658Z,10.80
2018-10-09T16:15:17.717Z,6.83
2018-10-09T16:17:46.269Z,7.53
2018-10-09T16:20:14.795Z,11.90
2018-10-09T16:22:43.364Z,13.77
2018-10-09T16:25:12.010Z,15.47
2018-10-09T16:27:40.525Z,11.90
2018-10-09T16:30:09.069Z,11.57
2018-10-09T16:32:37.910Z,9.83
2018-10-09T16:35:06.602Z,9.90
2018-10-09T16:37:35.263Z,10.43
2018-10-09T16:40:04.021Z,6.47
2018-10-09T16:42:32.569Z,9.70
2018-10-09T16:45:01.721Z,9.90
2018-10-09T16:47:30.427Z,9.43
2018-10-09T16:49:58.885Z,12.47
2018-10-09T16:52:27.468Z,14.20
2018-10-09T16:54:56.047Z,10.83
2018-10-09T16:57:24.611Z,12.20
2018-10-09T16:59:53.161Z,12.10
2018-10-09T17:02:21.695Z,11.63
2018-10-09T17:04:50.247Z,10.32
2018-10-09T17:07:19.183Z,10.73
2018-10-09T17:09:47.720Z,10.63
2018-10-09T17:12:16.266Z,11.87
2018-10-09T17:14:44.845Z,10.47
2018-10-09T17:17:13.459Z,13.33
2018-10-09T17:19:42.107Z,10.67
2018-10-09T17:22:10.668Z,9.13
2018-10-09T17:24:39.236Z,12.73
2018-10-09T17:27:07.750Z,10.97
2018-10-09T17:29:36.309Z,12.83
2018-10-09T17:32:04.870Z,8.93
2018-10-09T17:34:33.430Z,12.80
2018-10-09T17:37:02.129Z,12.50
2018-10-09T17:39:31.021Z,10.80
2018-10-09T17:41:59.608Z,11.47
2018-10-09T17:44:28.136Z,11.97
2018-10-09T17:46:56.672Z,16.30
2018-10-09T17:49:25.233Z,12.00
2018-10-09T17:51:54.054Z,12.67
2018-10-09T17:54:22.643Z,11.50
2018-10-09T17:56:51.195Z,12.00
2018-10-09T17:59:19.709Z,12.30
2018-10-09T18:01:48.280Z,14.80
2018-10-09T18:04:16.829Z,15.03
2018-10-09T18:06:45.410Z,9.83
2018-10-09T18:09:13.976Z,11.90
2018-10-09T18:11:42.804Z,13.95
2018-10-09T18:14:12.134Z,17.77
2018-10-09T18:16:40.758Z,15.80
2018-10-09T18:19:09.310Z,22.77
2018-10-09T18:21:38.087Z,14.37
2018-10-09T18:24:06.650Z,18.67
2018-10-09T18:26:35.212Z,16.27
2018-10-09T18:29:03.770Z,20.10
2018-10-09T18:31:32.431Z,17.97
2018-10-09T18:34:01.041Z,17.33
2018-10-09T18:36:29.630Z,13.97
2018-10-09T18:38:58.237Z,11.70
2018-10-09T18:41:26.958Z,11.43
2018-10-09T18:43:56.031Z,14.47
2018-10-09T18:46:24.617Z,14.77
2018-10-09T18:48:53.157Z,17.90
2018-10-09T18:51:21.888Z,17.92
2018-10-09T18:53:50.494Z,18.27
2018-10-09T18:56:19.378Z,13.10
2018-10-09T18:58:48.301Z,11.63
2018-10-09T19:01:16.851Z,15.97
2018-10-09T19:03:45.454Z,15.37
2018-10-09T19:06:14.205Z,16.27
2018-10-09T19:08:42.809Z,12.93
2018-10-09T19:11:11.444Z,14.43
2018-10-09T19:13:40.208Z,13.93
2018-10-09T19:16:08.885Z,14.40
2018-10-09T19:18:38.037Z,14.33
2018-10-09T19:21:06.750Z,15.60
2018-10-09T19:23:35.478Z,16.50
2018-10-09T19:26:04.264Z,12.40
2018-10-09T19:28:32.902Z,11.60
2018-10-09T19:31:01.573Z,14.13
2018-10-09T19:33:31.217Z,15.77
2018-10-09T19:35:59.908Z,13.90
2018-10-09T19:38:28.526Z,14.83
2018-10-09T19:40:57.417Z,12.27
2018-10-09T19:43:26.342Z,14.63
2018-10-09T19:45:54.900Z,11.37
2018-10-09T19:48:23.456Z,13.67
2018-10-09T19:50:52.072Z,18.43
2018-10-09T19:53:20.540Z,14.27
2018-10-09T19:55:49.061Z,16.03
2018-10-09T19:58:17.586Z,14.27
2018-10-09T20:00:46.167Z,12.23
2018-10-09T20:03:14.701Z,13.53
2018-10-09T20:05:43.289Z,15.27
2018-10-09T20:08:11.911Z,12.47
2018-10-09T20:10:40.446Z,11.97
2018-10-09T20:13:08.996Z,13.13
2018-10-09T20:15:37.697Z,17.03
2018-10-09T20:18:06.534Z,15.67
2018-10-09T20:20:35.058Z,18.00
2018-10-09T20:23:03.603Z,14.47
2018-10-09T20:25:32.144Z,17.43
2018-10-09T20:28:00.675Z,16.60
2018-10-09T20:30:29.217Z,16.43
2018-10-09T20:32:57.774Z,18.97
2018-10-09T20:35:26.318Z,18.70
2018-10-09T20:37:54.895Z,31.90
2018-10-09T20:40:23.429Z,18.07
2018-10-09T20:42:51.984Z,22.40
2018-10-09T20:45:20.502Z,18.03
2018-10-09T20:47:49.343Z,17.10
2018-10-09T20:50:17.890Z,15.50
2018-10-09T20:52:46.397Z,15.23
2018-10-09T20:55:14.960Z,22.03
2018-10-09T20:57:43.475Z,17.70
2018-10-09T21:00:12.043Z,16.67
2018-10-09T21:02:40.573Z,22.50
2018-10-09T21:05:09.092Z,17.50
2018-10-09T21:07:37.614Z,17.47
2018-10-09T21:10:06.150Z,16.40
2018-10-09T21:12:34.721Z,19.90
2018-10-09T21:15:03.230Z,13.63
2018-10-09T21:17:31.886Z,18.03
2018-10-09T21:20:00.421Z,17.60
2018-10-09T21:22:28.965Z,20.47
2018-10-09T21:24:57.510Z,18.70
2018-10-09T21:27:26.299Z,18.20
2018-10-09T21:29:54.881Z,19.90
2018-10-09T21:32:23.493Z,21.40
2018-10-09T21:34:52.018Z,19.37
2018-10-09T21:37:20.558Z,20.40
2018-10-09T21:39:49.074Z,19.97
2018-10-09T21:42:17.600Z,20.17
2018-10-09T21:44:46.158Z,22.10
2018-10-09T21:47:14.697Z,19.50
2018-10-09T21:49:43.244Z,18.63
2018-10-09T21:52:11.783Z,20.27
2018-10-09T21:54:40.311Z,21.20
2018-10-09T21:57:08.854Z,19.63
2018-10-09T21:59:37.575Z,19.00
2018-10-09T22:02:06.617Z,17.97
2018-10-09T22:04:35.161Z,21.90
2018-10-09T22:07:03.773Z,28.20
2018-10-09T22:09:32.360Z,20.83
2018-10-09T22:12:00.916Z,24.30
2018-10-09T22:14:29.455Z,22.90
2018-10-09T22:16:58.026Z,24.80
2018-10-09T22:19:26.599Z,27.30
2018-10-09T22:21:55.164Z,24.57
2018-10-09T22:24:23.819Z,23.23
2018-10-09T22:26:52.398Z,25.00
2018-10-09T22:29:20.929Z,23.03
2018-10-09T22:31:49.470Z,23.30
2018-10-09T22:34:18.010Z,24.10
2018-10-09T22:36:46.537Z,24.60
2018-10-09T22:39:15.099Z,21.83
2018-10-09T22:41:43.621Z,26.70
2018-10-09T22:44:12.184Z,24.70
2018-10-09T22:46:40.757Z,25.17
2018-10-09T22:49:09.283Z,27.30
2018-10-09T22:51:37.826Z,25.03
2018-10-09T22:54:06.386Z,24.83
2018-10-09T22:56:34.913Z,29.80
2018-10-09T22:59:03.649Z,25.47
2018-10-09T23:01:32.210Z,26.07
2018-10-09T23:04:01.881Z,25.97
2018-10-09T23:06:30.410Z,25.10
2018-10-09T23:08:58.953Z,25.13
2018-10-09T23:11:27.506Z,25.27
2018-10-09T23:13:56.036Z,25.27
2018-10-09T23:16:24.591Z,29.33
2018-10-09T23:18:53.208Z,32.93
2018-10-09T23:21:21.714Z,27.70
2018-10-09T23:23:50.289Z,28.73
2018-10-09T23:26:18.873Z,27.33
2018-10-09T23:28:47.445Z,30.97
2018-10-09T23:31:15.974Z,28.53
2018-10-09T23:33:44.539Z,29.10
2018-10-09T23:36:13.078Z,27.17
2018-10-09T23:38:41.646Z,30.37
2018-10-09T23:41:10.257Z,29.73
2018-10-09T23:43:38.789Z,29.87
2018-10-09T23:46:07.316Z,32.77
2018-10-09T23:48:35.889Z,28.47
2018-10-09T23:51:04.426Z,30.20
2018-10-09T23:53:32.971Z,32.63
2018-10-09T23:56:01.523Z,32.87
2018-10-09T23:58:30.103Z,33.87
